Time,TemperatureF,DewpointF,PressureIn,WindDirection,WindDirectionDegrees,WindSpeedMPH,WindSpeedGustMPH,Humidity,HourlyPrecipIn,Conditions,Clouds,dailyrainin,SoftwareType,DateUTC
2013-01-20 00:02:00,18.0,17.0,-100.00,SE,142,0.0,0.0,96,-99.99,,,-99.99,,2013-01-20 07:02:00,
2013-01-20 00:12:00,18.0,17.0,-100.00,SE,142,0.0,0.0,96,-99.99,,,-99.99,,2013-01-20 07:12:00,
2013-01-20 00:22:00,18.0,17.0,-100.00,SE,142,0.0,0.0,96,-99.99,,,-99.99,,2013-01-20 07:22:00,
2013-01-20 00:32:00,18.0,17.0,-100.00,SE,144,3.0,3.0,96,-99.99,,,-99.99,,2013-01-20 07:32:00,
2013-01-20 00:42:00,18.0,17.0,-100.00,SE,144,3.0,3.0,96,-99.99,,,-99.99,,2013-01-20 07:42:00,
2013-01-20 00:52:00,18.0,17.0,-100.00,SE,144,3.0,3.0,96,-99.99,,,-99.99,,2013-01-20 07:52:00,
2013-01-20 01:02:00,18.0,17.0,-100.00,SE,144,3.0,3.0,96,-99.99,,,-99.99,,2013-01-20 08:02:00,
2013-01-20 01:12:00,18.0,17.0,-100.00,SE,144,3.0,3.0,96,-99.99,,,-99.99,,2013-01-20 08:12:00,
2013-01-20 02:53:00,14.0,14.0,-100.00,ENE,67,3.0,11.0,98,-99.99,,,-99.99,,2013-01-20 09:53:00,
2013-01-20 03:02:00,13.0,13.0,-100.00,NNE,33,5.0,7.0,98,-99.99,,,-99.99,,2013-01-20 10:02:00,
2013-01-20 03:12:00,13.0,13.0,-100.00,NNE,33,5.0,7.0,98,-99.99,,,-99.99,,2013-01-20 10:12:00,
2013-01-20 03:22:00,13.0,13.0,-100.00,NNE,33,5.0,7.0,98,-99.99,,,-99.99,,2013-01-20 10:22:00,
2013-01-20 03:32:00,13.0,13.0,-100.00,NNE,33,5.0,7.0,98,-99.99,,,-99.99,,2013-01-20 10:32:00,
2013-01-20 03:42:00,13.0,13.0,-100.00,NNE,33,5.0,7.0,98,-99.99,,,-99.99,,2013-01-20 10:42:00,
2013-01-20 03:52:00,13.0,13.0,-100.00,NE,35,11.0,11.0,98,-99.99,,,-99.99,,2013-01-20 10:52:00,
2013-01-20 04:02:00,13.0,13.0,-100.00,NE,35,11.0,11.0,98,-99.99,,,-99.99,,2013-01-20 11:02:00,
2013-01-20 04:12:00,13.0,13.0,-100.00,NE,35,11.0,11.0,98,-99.99,,,-99.99,,2013-01-20 11:12:00,
2013-01-20 04:22:00,13.0,13.0,-100.00,NE,35,11.0,11.0,98,-99.99,,,-99.99,,2013-01-20 11:22:00,
2013-01-20 05:23:00,11.0,10.0,-100.00,NE,36,10.0,16.0,96,-99.99,,,-99.99,,2013-01-20 12:23:00,
2013-01-20 05:33:00,11.0,10.0,-100.00,NE,36,10.0,16.0,96,-99.99,,,-99.99,,2013-01-20 12:33:00,
2013-01-20 05:43:00,11.0,10.0,-100.00,NE,36,10.0,16.0,96,-99.99,,,-99.99,,2013-01-20 12:43:00,
2013-01-20 05:52:00,11.0,10.0,-100.00,NE,36,10.0,16.0,96,-99.99,,,-99.99,,2013-01-20 12:52:00,
2013-01-20 06:03:00,8.0,7.0,-100.00,NE,40,5.0,11.0,95,-99.99,,,-99.99,,2013-01-20 13:03:00,
2013-01-20 06:12:00,8.0,7.0,-100.00,NE,40,5.0,11.0,95,-99.99,,,-99.99,,2013-01-20 13:12:00,
2013-01-20 06:23:00,8.0,7.0,-100.00,NE,40,5.0,11.0,95,-99.99,,,-99.99,,2013-01-20 13:23:00,
2013-01-20 06:33:00,7.0,6.0,-100.00,NE,46,8.0,12.0,95,-99.99,,,-99.99,,2013-01-20 13:33:00,
2013-01-20 06:42:00,7.0,6.0,-100.00,NE,46,8.0,12.0,95,-99.99,,,-99.99,,2013-01-20 13:42:00,
2013-01-20 06:53:00,7.0,6.0,-100.00,ENE,64,6.0,13.0,97,-99.99,,,-99.99,,2013-01-20 13:53:00,
2013-01-20 07:02:00,7.0,6.0,-100.00,NW,324,6.0,15.0,96,-99.99,,,-99.99,,2013-01-20 14:02:00,
2013-01-20 07:12:00,7.0,6.0,-100.00,NW,324,6.0,15.0,96,-99.99,,,-99.99,,2013-01-20 14:12:00,
2013-01-20 07:22:00,6.0,5.0,-100.00,NNE,29,7.0,12.0,96,-99.99,,,-99.99,,2013-01-20 14:22:00,
2013-01-20 07:33:00,6.0,5.0,-100.00,NE,39,3.0,9.0,97,-99.99,,,-99.99,,2013-01-20 14:33:00,
2013-01-20 07:42:00,6.0,5.0,-100.00,NE,39,3.0,9.0,97,-99.99,,,-99.99,,2013-01-20 14:42:00,
2013-01-20 07:52:00,6.0,5.0,-100.00,NE,39,3.0,9.0,97,-99.99,,,-99.99,,2013-01-20 14:52:00,
2013-01-20 08:03:00,5.0,4.0,-100.00,NE,46,5.0,11.0,95,-99.99,,,-99.99,,2013-01-20 15:03:00,
2013-01-20 08:12:00,5.0,4.0,-100.00,NE,46,5.0,11.0,95,-99.99,,,-99.99,,2013-01-20 15:12:00,
2013-01-20 08:23:00,5.0,4.0,-100.00,ENE,75,9.0,10.0,96,-99.99,,,-99.99,,2013-01-20 15:23:00,
2013-01-20 08:33:00,5.0,4.0,-100.00,ENE,61,8.0,16.0,95,-99.99,,,-99.99,,2013-01-20 15:33:00,
2013-01-20 08:42:00,5.0,4.0,-100.00,ENE,61,8.0,16.0,95,-99.99,,,-99.99,,2013-01-20 15:42:00,
2013-01-20 08:52:00,5.0,4.0,-100.00,NE,40,5.0,12.0,96,-99.99,,,-99.99,,2013-01-20 15:52:00,
2013-01-20 09:03:00,4.0,3.0,-100.00,NNE,32,7.0,10.0,95,-99.99,,,-99.99,,2013-01-20 16:03:00,
2013-01-20 09:12:00,4.0,3.0,-100.00,NNE,32,7.0,10.0,95,-99.99,,,-99.99,,2013-01-20 16:12:00,
2013-01-20 09:23:00,4.0,3.0,-100.00,North,9,5.0,12.0,95,-99.99,,,-99.99,,2013-01-20 16:23:00,
2013-01-20 09:33:00,3.0,2.0,-100.00,NE,39,3.0,10.0,95,-99.99,,,-99.99,,2013-01-20 16:33:00,
2013-01-20 09:43:00,3.0,2.0,-100.00,NE,39,3.0,10.0,95,-99.99,,,-99.99,,2013-01-20 16:43:00,
2013-01-20 09:52:00,3.0,1.0,-100.00,NE,46,7.0,16.0,93,-99.99,,,-99.99,,2013-01-20 16:52:00,
2013-01-20 10:03:00,2.0,0.0,-100.00,East,98,9.0,16.0,93,-99.99,,,-99.99,,2013-01-20 17:03:00,
2013-01-20 10:12:00,2.0,0.0,-100.00,East,98,9.0,16.0,93,-99.99,,,-99.99,,2013-01-20 17:12:00,
2013-01-20 10:22:00,2.0,0.0,-100.00,ENE,60,6.0,12.0,92,-99.99,,,-99.99,,2013-01-20 17:22:00,
2013-01-20 10:33:00,2.0,0.0,-100.00,ENE,60,6.0,12.0,92,-99.99,,,-99.99,,2013-01-20 17:33:00,
2013-01-20 10:42:00,2.0,0.0,-100.00,ENE,60,6.0,12.0,92,-99.99,,,-99.99,,2013-01-20 17:42:00,
2013-01-20 10:52:00,2.0,0.0,-100.00,ENE,60,6.0,12.0,92,-99.99,,,-99.99,,2013-01-20 17:52:00,
2013-01-20 11:03:00,2.0,0.0,-100.00,NNE,12,3.0,8.0,91,-99.99,,,-99.99,,2013-01-20 18:03:00,
2013-01-20 11:13:00,1.0,-1.0,-100.00,NE,45,2.0,8.0,91,-99.99,,,-99.99,,2013-01-20 18:13:00,
2013-01-20 11:23:00,1.0,-1.0,-100.00,NE,45,2.0,8.0,91,-99.99,,,-99.99,,2013-01-20 18:23:00,
2013-01-20 11:33:00,1.0,-1.0,-100.00,NE,42,5.0,12.0,90,-99.99,,,-99.99,,2013-01-20 18:33:00,
2013-01-20 11:43:00,1.0,-1.0,-100.00,NE,42,5.0,12.0,90,-99.99,,,-99.99,,2013-01-20 18:43:00,
2013-01-20 11:53:00,1.0,-1.0,-100.00,NE,43,0.0,7.0,91,-99.99,,,-99.99,,2013-01-20 18:53:00,
2013-01-20 12:02:00,1.0,-1.0,-100.00,NE,43,0.0,7.0,91,-99.99,,,-99.99,,2013-01-20 19:02:00,
2013-01-20 12:12:00,1.0,-1.0,-100.00,NE,43,0.0,7.0,91,-99.99,,,-99.99,,2013-01-20 19:12:00,
2013-01-20 12:22:00,1.0,-1.0,-100.00,NE,43,0.0,7.0,91,-99.99,,,-99.99,,2013-01-20 19:22:00,
2013-01-20 15:33:00,-1.0,-3.0,-100.00,NE,49,0.0,5.0,90,-99.99,,,-99.99,,2013-01-20 22:33:00,
2013-01-20 15:43:00,-1.0,-3.0,-100.00,NE,49,0.0,5.0,90,-99.99,,,-99.99,,2013-01-20 22:43:00,
2013-01-20 15:53:00,-1.0,-3.0,-100.00,NE,49,0.0,5.0,90,-99.99,,,-99.99,,2013-01-20 22:53:00,
2013-01-20 16:03:00,-1.0,-3.0,-100.00,NE,49,0.0,5.0,90,-99.99,,,-99.99,,2013-01-20 23:03:00,
2013-01-20 16:13:00,-1.0,-3.0,-100.00,NE,49,0.0,5.0,90,-99.99,,,-99.99,,2013-01-20 23:13:00,
2013-01-20 16:23:00,-2.0,-4.0,-100.00,NE,49,2.0,6.0,90,-99.99,,,-99.99,,2013-01-20 23:23:00,
2013-01-20 16:33:00,-2.0,-4.0,-100.00,NE,49,2.0,6.0,90,-99.99,,,-99.99,,2013-01-20 23:33:00,
2013-01-20 16:43:00,-2.0,-4.0,-100.00,NE,49,2.0,6.0,90,-99.99,,,-99.99,,2013-01-20 23:43:00,
2013-01-20 16:53:00,-2.0,-4.0,-100.00,NE,49,2.0,6.0,90,-99.99,,,-99.99,,2013-01-20 23:53:00,
2013-01-20 17:23:00,-2.0,-4.0,-100.00,ENE,73,0.0,0.0,92,-99.99,,,-99.99,,2013-01-21 00:23:00,
2013-01-20 17:33:00,-2.0,-4.0,-100.00,ENE,73,0.0,0.0,92,-99.99,,,-99.99,,2013-01-21 00:33:00,
2013-01-20 17:43:00,-2.0,-4.0,-100.00,ENE,73,0.0,0.0,92,-99.99,,,-99.99,,2013-01-21 00:43:00,
2013-01-20 17:53:00,-2.0,-4.0,-100.00,ENE,73,0.0,0.0,92,-99.99,,,-99.99,,2013-01-21 00:53:00,
2013-01-20 18:03:00,-2.0,-4.0,-100.00,ENE,73,0.0,0.0,92,-99.99,,,-99.99,,2013-01-21 01:03:00,
2013-01-20 18:13:00,-2.0,-4.0,-100.00,ENE,73,0.0,0.0,92,-99.99,,,-99.99,,2013-01-21 01:13:00,
2013-01-20 18:23:00,-2.0,-4.0,-100.00,ENE,73,0.0,0.0,92,-99.99,,,-99.99,,2013-01-21 01:23:00,
2013-01-20 18:33:00,-2.0,-4.0,-100.00,ENE,73,0.0,0.0,92,-99.99,,,-99.99,,2013-01-21 01:33:00,
2013-01-20 18:43:00,-2.0,-4.0,-100.00,ENE,73,0.0,0.0,92,-99.99,,,-99.99,,2013-01-21 01:43:00,
2013-01-20 18:52:00,-1.0,-3.0,-100.00,ENE,73,0.0,0.0,92,-99.99,,,-99.99,,2013-01-21 01:52:00,
2013-01-20 19:03:00,-1.0,-3.0,-100.00,ENE,73,0.0,0.0,92,-99.99,,,-99.99,,2013-01-21 02:03:00,
2013-01-20 19:12:00,-1.0,-3.0,-100.00,ENE,73,0.0,0.0,92,-99.99,,,-99.99,,2013-01-21 02:12:00,
2013-01-20 19:23:00,-1.0,-3.0,-100.00,ENE,73,0.0,0.0,92,-99.99,,,-99.99,,2013-01-21 02:23:00,
2013-01-20 19:33:00,-1.0,-3.0,-100.00,ENE,73,0.0,0.0,92,-99.99,,,-99.99,,2013-01-21 02:33:00,
2013-01-20 19:43:00,-1.0,-3.0,-100.00,ENE,73,0.0,0.0,92,-99.99,,,-99.99,,2013-01-21 02:43:00,
2013-01-20 19:52:00,-1.0,-3.0,-100.00,ENE,73,0.0,0.0,92,-99.99,,,-99.99,,2013-01-21 02:52:00,
2013-01-20 20:03:00,-1.0,-3.0,-100.00,ENE,73,0.0,0.0,92,-99.99,,,-99.99,,2013-01-21 03:03:00,
2013-01-20 20:12:00,-1.0,-3.0,-100.00,ENE,73,0.0,0.0,92,-99.99,,,-99.99,,2013-01-21 03:12:00,
2013-01-20 20:23:00,0.0,-2.0,-100.00,ENE,73,0.0,0.0,92,-99.99,,,-99.99,,2013-01-21 03:23:00,
2013-01-20 20:33:00,0.0,-2.0,-100.00,ENE,73,0.0,0.0,92,-99.99,,,-99.99,,2013-01-21 03:33:00,
2013-01-20 20:43:00,0.0,-2.0,-100.00,ENE,73,0.0,0.0,92,-99.99,,,-99.99,,2013-01-21 03:43:00,
2013-01-20 20:52:00,0.0,-2.0,-100.00,ENE,73,0.0,0.0,92,-99.99,,,-99.99,,2013-01-21 03:52:00,
2013-01-20 21:03:00,0.0,-2.0,-100.00,WNW,303,2.0,2.0,92,-99.99,,,-99.99,,2013-01-21 04:03:00,
2013-01-20 21:12:00,0.0,-2.0,-100.00,WNW,303,2.0,2.0,92,-99.99,,,-99.99,,2013-01-21 04:12:00,
2013-01-20 21:23:00,0.0,-2.0,-100.00,WNW,303,2.0,2.0,92,-99.99,,,-99.99,,2013-01-21 04:23:00,
2013-01-20 21:33:00,0.0,-2.0,-100.00,NW,312,0.0,0.0,92,-99.99,,,-99.99,,2013-01-21 04:33:00,
2013-01-20 21:42:00,0.0,-2.0,-100.00,NW,312,0.0,0.0,92,-99.99,,,-99.99,,2013-01-21 04:42:00,
2013-01-20 21:53:00,0.0,-2.0,-100.00,NW,312,0.0,0.0,92,-99.99,,,-99.99,,2013-01-21 04:53:00,
2013-01-20 22:03:00,0.0,-2.0,-100.00,NW,323,0.0,0.0,92,-99.99,,,-99.99,,2013-01-21 05:03:00,
2013-01-20 22:12:00,0.0,-2.0,-100.00,NW,323,0.0,0.0,92,-99.99,,,-99.99,,2013-01-21 05:12:00,
2013-01-20 22:22:00,0.0,-2.0,-100.00,WNW,303,0.0,0.0,92,-99.99,,,-99.99,,2013-01-21 05:22:00,
2013-01-20 22:34:00,0.0,-2.0,-100.00,WNW,303,0.0,0.0,92,-99.99,,,-99.99,,2013-01-21 05:34:00,
2013-01-20 22:42:00,0.0,-2.0,-100.00,WNW,303,0.0,0.0,92,-99.99,,,-99.99,,2013-01-21 05:42:00,
2013-01-20 22:52:00,1.0,-1.0,-100.00,NW,315,0.0,0.0,92,-99.99,,,-99.99,,2013-01-21 05:52:00,
2013-01-20 23:03:00,1.0,-1.0,-100.00,NW,315,0.0,0.0,92,-99.99,,,-99.99,,2013-01-21 06:03:00,
2013-01-20 23:12:00,1.0,-1.0,-100.00,NW,315,0.0,0.0,92,-99.99,,,-99.99,,2013-01-21 06:12:00,
2013-01-20 23:23:00,1.0,-1.0,-100.00,NW,315,0.0,0.0,93,-99.99,,,-99.99,,2013-01-21 06:23:00,
2013-01-20 23:33:00,1.0,-1.0,-100.00,NW,315,0.0,0.0,93,-99.99,,,-99.99,,2013-01-21 06:33:00,
2013-01-20 23:43:00,1.0,-1.0,-100.00,NW,315,0.0,0.0,93,-99.99,,,-99.99,,2013-01-21 06:43:00,
2013-01-20 23:53:00,0.0,-1.0,-100.00,NW,315,0.0,0.0,94,-99.99,,,-99.99,,2013-01-21 06:53:00,